createdAt,value
2022-08-02T00:00:55.735Z,15.85
2022-08-02T00:01:51.815Z,15.83
2022-08-02T00:02:51.804Z,15.83
2022-08-02T00:03:51.742Z,15.80
2022-08-02T00:04:51.772Z,15.75
2022-08-02T00:05:53.561Z,15.75
2022-08-02T00:06:51.663Z,15.62
2022-08-02T00:07:51.718Z,15.63
2022-08-02T00:08:51.689Z,15.60
2022-08-02T00:09:51.612Z,15.60
2022-08-02T00:10:51.596Z,15.55
2022-08-02T00:11:51.631Z,15.57
2022-08-02T00:12:51.616Z,15.54
2022-08-02T00:13:51.542Z,15.47
2022-08-02T00:14:51.557Z,15.41
2022-08-02T00:15:51.503Z,15.47
2022-08-02T00:16:51.487Z,15.52
2022-08-02T00:17:51.508Z,15.37
2022-08-02T00:18:51.469Z,15.51
2022-08-02T00:19:51.440Z,15.55
2022-08-02T00:20:51.413Z,15.52
2022-08-02T00:21:51.416Z,15.57
2022-08-02T00:22:51.443Z,15.60
2022-08-02T00:24:27.856Z,15.50
2022-08-02T00:24:51.413Z,15.55
2022-08-02T00:25:54.526Z,15.57
2022-08-02T00:26:51.328Z,15.55
2022-08-02T00:27:51.341Z,15.57
2022-08-02T00:28:51.291Z,15.52
2022-08-02T00:29:52.947Z,15.50
2022-08-02T00:30:51.273Z,15.51
2022-08-02T00:31:51.235Z,15.50
2022-08-02T00:32:51.193Z,15.45
2022-08-02T00:34:27.146Z,15.44
2022-08-02T00:34:51.157Z,15.45
2022-08-02T00:35:51.141Z,15.39
2022-08-02T00:36:51.119Z,15.36
2022-08-02T00:37:51.138Z,15.33
2022-08-02T00:38:51.118Z,15.29
2022-08-02T00:39:51.068Z,15.32
2022-08-02T00:40:53.347Z,15.37
2022-08-02T00:41:51.048Z,15.29
2022-08-02T00:42:51.345Z,15.33
2022-08-02T00:43:50.993Z,15.26
2022-08-02T00:44:50.977Z,15.29
2022-08-02T00:46:01.980Z,15.29
2022-08-02T00:46:50.940Z,15.36
2022-08-02T00:47:50.929Z,15.23
2022-08-02T00:48:50.934Z,15.26
2022-08-02T00:49:50.884Z,15.26
2022-08-02T00:50:50.867Z,15.33
2022-08-02T00:51:50.848Z,15.41
2022-08-02T00:52:50.830Z,15.43
2022-08-02T00:53:50.812Z,15.41
2022-08-02T00:54:50.800Z,15.35
2022-08-02T00:55:50.778Z,15.30
2022-08-02T00:56:51.159Z,15.44
2022-08-02T00:57:50.741Z,15.33
2022-08-02T00:58:50.724Z,15.36
2022-08-02T00:59:50.700Z,15.26
2022-08-02T01:00:50.682Z,15.30
2022-08-02T01:01:56.344Z,15.26
2022-08-02T01:02:50.645Z,15.32
2022-08-02T01:03:50.633Z,15.29
2022-08-02T01:04:50.607Z,15.30
2022-08-02T01:06:09.130Z,15.25
2022-08-02T01:06:50.574Z,15.26
2022-08-02T01:07:50.555Z,15.26
2022-08-02T01:08:50.545Z,15.30
2022-08-02T01:09:50.520Z,15.19
2022-08-02T01:10:50.507Z,15.23
2022-08-02T01:11:50.482Z,15.25
2022-08-02T01:12:50.466Z,15.22
2022-08-02T01:13:50.447Z,15.17
2022-08-02T01:14:50.425Z,15.14
2022-08-02T01:15:50.411Z,15.17
2022-08-02T01:16:50.389Z,15.17
2022-08-02T01:17:50.376Z,15.18
2022-08-02T01:18:50.351Z,15.15
2022-08-02T01:19:50.334Z,15.19
2022-08-02T01:20:50.320Z,15.17
2022-08-02T01:21:50.300Z,15.18
2022-08-02T01:23:04.430Z,15.19
2022-08-02T01:23:50.262Z,15.15
2022-08-02T01:24:50.240Z,15.18
2022-08-02T01:25:50.227Z,15.17
2022-08-02T01:26:50.205Z,15.19
2022-08-02T01:27:50.188Z,15.17
2022-08-02T01:28:50.173Z,15.17
2022-08-02T01:29:50.151Z,15.15
2022-08-02T01:30:50.165Z,15.18
2022-08-02T01:31:50.113Z,15.15
2022-08-02T01:32:50.095Z,15.32
2022-08-02T01:33:50.075Z,15.25
2022-08-02T01:34:50.062Z,15.33
2022-08-02T01:35:51.048Z,15.27
2022-08-02T01:36:50.020Z,15.27
2022-08-02T01:37:50.007Z,15.26
2022-08-02T01:38:49.990Z,15.33
2022-08-02T01:39:49.968Z,15.29
2022-08-02T01:40:49.948Z,15.22
2022-08-02T01:41:49.930Z,15.32
2022-08-02T01:42:49.908Z,15.26
2022-08-02T01:43:49.891Z,15.23
2022-08-02T01:44:49.877Z,15.25
2022-08-02T01:45:49.861Z,15.23
2022-08-02T01:46:49.838Z,15.18
2022-08-02T01:47:49.817Z,15.23
2022-08-02T01:48:49.899Z,15.26
2022-08-02T01:49:49.782Z,15.23
2022-08-02T01:50:49.760Z,15.26
2022-08-02T01:51:49.746Z,15.36
2022-08-02T01:52:53.126Z,15.27
2022-08-02T01:53:49.707Z,15.25
2022-08-02T01:54:50.023Z,15.27
2022-08-02T01:55:58.480Z,15.23
2022-08-02T01:56:49.655Z,15.25
2022-08-02T01:57:49.640Z,15.33
2022-08-02T01:58:49.613Z,15.35
2022-08-02T01:59:49.601Z,15.26
2022-08-02T02:00:49.649Z,15.26
2022-08-02T02:01:49.644Z,15.29
2022-08-02T02:02:49.543Z,15.17
2022-08-02T02:03:49.532Z,15.17
2022-08-02T02:04:49.513Z,15.18
2022-08-02T02:05:49.494Z,15.19
2022-08-02T02:06:49.467Z,15.15
2022-08-02T02:07:49.448Z,15.04
2022-08-02T02:08:49.429Z,15.00
2022-08-02T02:09:50.635Z,15.02
2022-08-02T02:10:49.398Z,15.02
2022-08-02T02:12:11.630Z,15.00
2022-08-02T02:12:49.353Z,15.07
2022-08-02T02:13:49.338Z,14.94
2022-08-02T02:14:51.810Z,15.02
2022-08-02T02:15:49.302Z,15.11
2022-08-02T02:16:49.282Z,15.07
2022-08-02T02:17:50.509Z,15.10
2022-08-02T02:18:49.247Z,15.12
2022-08-02T02:19:49.227Z,15.04
2022-08-02T02:20:49.207Z,15.08
2022-08-02T02:21:49.190Z,15.00
2022-08-02T02:22:49.885Z,15.04
2022-08-02T02:23:50.776Z,14.99
2022-08-02T02:24:49.132Z,14.99
2022-08-02T02:25:49.119Z,14.90
2022-08-02T02:26:52.421Z,14.96
2022-08-02T02:27:49.080Z,14.94
2022-08-02T02:28:49.067Z,14.90
2022-08-02T02:29:49.043Z,14.93
2022-08-02T02:30:49.022Z,14.93
2022-08-02T02:31:49.005Z,14.93
2022-08-02T02:32:48.986Z,14.87
2022-08-02T02:33:48.971Z,14.85
2022-08-02T02:34:48.948Z,14.86
2022-08-02T02:35:48.930Z,14.82
2022-08-02T02:36:48.912Z,14.77
2022-08-02T02:37:48.893Z,14.68
2022-08-02T02:38:48.873Z,14.77
2022-08-02T02:39:48.859Z,14.67
2022-08-02T02:40:48.836Z,14.70
2022-08-02T02:41:48.821Z,14.62
2022-08-02T02:42:49.478Z,14.62
2022-08-02T02:43:48.783Z,14.62
2022-08-02T02:44:48.761Z,14.63
2022-08-02T02:45:48.746Z,14.59
2022-08-02T02:46:48.723Z,14.61
2022-08-02T02:47:48.709Z,14.73
2022-08-02T02:48:48.689Z,14.59
2022-08-02T02:49:48.680Z,14.51
2022-08-02T02:50:48.650Z,14.53
2022-08-02T02:51:48.636Z,14.52
2022-08-02T02:52:48.614Z,14.55
2022-08-02T02:54:30.265Z,14.51
2022-08-02T02:54:48.576Z,14.55
2022-08-02T02:56:02.605Z,14.49
2022-08-02T02:56:48.536Z,14.51
2022-08-02T02:57:48.518Z,14.41
2022-08-02T02:58:48.508Z,14.41
2022-08-02T02:59:49.529Z,14.38
2022-08-02T03:00:48.470Z,14.37
2022-08-02T03:01:57.321Z,14.30
2022-08-02T03:02:48.423Z,14.26
2022-08-02T03:03:48.409Z,14.22
2022-08-02T03:04:56.708Z,14.22
2022-08-02T03:05:48.370Z,14.26
2022-08-02T03:06:48.349Z,14.25
2022-08-02T03:07:48.332Z,14.22
2022-08-02T03:08:48.311Z,14.15
2022-08-02T03:09:53.913Z,14.15
2022-08-02T03:10:48.270Z,14.18
2022-08-02T03:11:48.255Z,14.16
2022-08-02T03:12:48.234Z,14.20
2022-08-02T03:13:48.221Z,14.15
2022-08-02T03:14:49.386Z,14.19
2022-08-02T03:15:48.182Z,14.22
2022-08-02T03:16:48.160Z,14.12
2022-08-02T03:17:48.144Z,14.12
2022-08-02T03:18:48.123Z,14.13
2022-08-02T03:19:48.104Z,14.12
2022-08-02T03:20:48.083Z,14.07
2022-08-02T03:21:48.066Z,14.08
2022-08-02T03:22:48.046Z,14.04
2022-08-02T03:23:48.028Z,14.12
2022-08-02T03:24:48.008Z,14.13
2022-08-02T03:25:47.993Z,14.15
2022-08-02T03:26:47.972Z,14.23
2022-08-02T03:27:47.964Z,14.25
2022-08-02T03:28:47.929Z,14.22
2022-08-02T03:29:47.916Z,14.25
2022-08-02T03:30:47.895Z,14.33
2022-08-02T03:31:47.874Z,14.28
2022-08-02T03:32:47.855Z,14.37
2022-08-02T03:33:47.837Z,14.33
2022-08-02T03:34:47.818Z,14.45
2022-08-02T03:35:47.803Z,14.52
2022-08-02T03:36:47.778Z,14.48
2022-08-02T03:37:47.761Z,14.52
2022-08-02T03:38:47.744Z,14.49
2022-08-02T03:39:52.773Z,14.61
2022-08-02T03:40:47.704Z,14.55
2022-08-02T03:41:47.685Z,14.62
2022-08-02T03:42:47.665Z,14.66
2022-08-02T03:43:47.650Z,14.61
2022-08-02T03:44:47.627Z,14.61
2022-08-02T03:45:47.611Z,14.67
2022-08-02T03:46:47.589Z,14.70
2022-08-02T03:47:47.573Z,14.79
2022-08-02T03:48:47.551Z,14.79
2022-08-02T03:49:47.537Z,14.78
2022-08-02T03:50:47.513Z,14.70
2022-08-02T03:51:47.494Z,14.73
2022-08-02T03:52:47.480Z,14.73
2022-08-02T03:53:47.458Z,14.79
2022-08-02T03:54:47.443Z,14.85
2022-08-02T03:55:47.422Z,14.86
2022-08-02T03:56:47.397Z,14.71
2022-08-02T03:57:47.383Z,14.73
2022-08-02T03:58:49.417Z,14.73
2022-08-02T03:59:47.345Z,14.67
2022-08-02T04:00:47.337Z,14.62
2022-08-02T04:01:47.304Z,14.70
2022-08-02T04:02:47.286Z,14.78
2022-08-02T04:03:47.265Z,14.78
2022-08-02T04:04:47.309Z,14.74
2022-08-02T04:06:03.794Z,14.73
2022-08-02T04:06:47.271Z,14.70
2022-08-02T04:08:02.551Z,14.68
2022-08-02T04:08:47.267Z,14.74
2022-08-02T04:09:47.225Z,14.70
2022-08-02T04:10:47.191Z,14.67
2022-08-02T04:11:47.143Z,14.73
2022-08-02T04:12:47.167Z,14.81
2022-08-02T04:13:47.124Z,14.68
2022-08-02T04:14:47.058Z,14.70
2022-08-02T04:15:47.040Z,14.67
2022-08-02T04:16:47.048Z,14.73
2022-08-02T04:17:47.000Z,14.77
2022-08-02T04:18:46.984Z,14.82
2022-08-02T04:19:46.961Z,14.82
2022-08-02T04:20:46.940Z,14.68
2022-08-02T04:21:51.585Z,14.77
2022-08-02T04:22:46.906Z,14.74
2022-08-02T04:23:46.885Z,14.81
2022-08-02T04:24:46.867Z,14.71
2022-08-02T04:25:46.846Z,14.87
2022-08-02T04:26:48.940Z,14.86
2022-08-02T04:27:51.347Z,14.86
2022-08-02T04:28:46.789Z,14.74
2022-08-02T04:29:47.149Z,14.87
2022-08-02T04:30:46.751Z,14.81
2022-08-02T04:31:46.736Z,14.87
2022-08-02T04:32:46.713Z,14.86
2022-08-02T04:33:46.694Z,14.92
2022-08-02T04:35:11.372Z,14.89
2022-08-02T04:35:46.656Z,14.90
2022-08-02T04:36:46.640Z,14.94
2022-08-02T04:38:08.922Z,14.89
2022-08-02T04:38:46.599Z,14.96
2022-08-02T04:39:46.580Z,14.96
2022-08-02T04:40:46.560Z,14.94
2022-08-02T04:41:46.546Z,14.90
2022-08-02T04:42:46.524Z,14.93
2022-08-02T04:43:46.502Z,14.92
2022-08-02T04:44:46.488Z,14.92
2022-08-02T04:45:46.465Z,14.90
2022-08-02T04:46:46.460Z,14.92
2022-08-02T04:48:01.943Z,14.96
2022-08-02T04:48:46.409Z,14.92
2022-08-02T04:49:46.437Z,15.00
2022-08-02T04:50:46.369Z,15.02
2022-08-02T04:51:46.351Z,15.10
2022-08-02T04:52:46.366Z,15.11
2022-08-02T04:53:46.313Z,15.02
2022-08-02T04:54:46.294Z,15.11
2022-08-02T04:55:46.273Z,15.08
2022-08-02T04:56:46.260Z,15.11
2022-08-02T04:57:52.437Z,15.23
2022-08-02T04:58:46.216Z,15.17
2022-08-02T04:59:46.198Z,15.29
2022-08-02T05:00:46.231Z,15.25
2022-08-02T05:01:46.158Z,15.26
2022-08-02T05:02:46.141Z,15.43
2022-08-02T05:03:46.865Z,15.51
2022-08-02T05:04:46.101Z,15.57
2022-08-02T05:05:46.082Z,15.41
2022-08-02T05:06:46.065Z,15.55
2022-08-02T05:07:46.044Z,15.55
2022-08-02T05:08:46.030Z,15.52
2022-08-02T05:09:46.008Z,15.57
2022-08-02T05:10:45.990Z,15.66
2022-08-02T05:11:45.967Z,15.62
2022-08-02T05:12:45.952Z,15.70
2022-08-02T05:13:58.602Z,15.73
2022-08-02T05:14:45.910Z,15.76
2022-08-02T05:15:45.890Z,15.76
2022-08-02T05:16:45.874Z,15.83
2022-08-02T05:17:48.055Z,15.83
2022-08-02T05:18:45.836Z,15.83
2022-08-02T05:19:45.813Z,15.78
2022-08-02T05:20:45.796Z,15.83
2022-08-02T05:21:45.775Z,15.78
2022-08-02T05:22:45.757Z,15.85
2022-08-02T05:23:45.737Z,15.81
2022-08-02T05:24:45.723Z,15.88
2022-08-02T05:25:45.701Z,15.87
2022-08-02T05:26:45.685Z,15.90
2022-08-02T05:27:45.660Z,15.99
2022-08-02T05:28:45.645Z,15.99
2022-08-02T05:29:51.259Z,15.92
2022-08-02T05:30:45.607Z,16.05
2022-08-02T05:31:45.586Z,16.03
2022-08-02T05:32:45.568Z,16.06
2022-08-02T05:33:45.551Z,16.10
2022-08-02T05:34:45.528Z,16.09
2022-08-02T05:35:45.507Z,16.05
2022-08-02T05:36:45.490Z,16.18
2022-08-02T05:37:45.471Z,16.18
2022-08-02T05:38:49.955Z,16.21
2022-08-02T05:39:55.414Z,16.22
2022-08-02T05:40:54.654Z,16.31
2022-08-02T05:41:45.394Z,16.18
2022-08-02T05:42:45.377Z,16.29
2022-08-02T05:43:45.356Z,16.44
2022-08-02T05:44:45.341Z,16.39
2022-08-02T05:45:45.323Z,16.41
2022-08-02T05:46:45.301Z,16.40
2022-08-02T05:47:45.280Z,16.47
2022-08-02T05:48:45.265Z,16.46
2022-08-02T05:49:45.243Z,16.55
2022-08-02T05:50:45.228Z,16.51
2022-08-02T05:51:45.338Z,16.50
2022-08-02T05:52:45.201Z,16.58
2022-08-02T05:53:45.232Z,16.65
2022-08-02T05:54:45.151Z,16.68
2022-08-02T05:55:45.131Z,16.64
2022-08-02T05:56:45.116Z,16.62
2022-08-02T05:57:45.094Z,16.76
2022-08-02T05:58:45.076Z,16.76
2022-08-02T05:59:45.057Z,16.76
2022-08-02T06:00:45.037Z,16.80
2022-08-02T06:01:45.108Z,16.76
2022-08-02T06:02:44.999Z,16.83
2022-08-02T06:03:44.981Z,16.91
2022-08-02T06:04:44.963Z,16.83
2022-08-02T06:05:44.945Z,16.97
2022-08-02T06:06:44.925Z,16.97
2022-08-02T06:07:44.909Z,16.94
2022-08-02T06:08:47.758Z,17.01
2022-08-02T06:09:44.867Z,17.04
2022-08-02T06:10:44.852Z,17.02
2022-08-02T06:12:02.661Z,17.05
2022-08-02T06:12:44.813Z,17.07
2022-08-02T06:13:44.793Z,17.17
2022-08-02T06:14:44.775Z,17.22
2022-08-02T06:15:53.253Z,17.22
2022-08-02T06:16:44.738Z,17.35
2022-08-02T06:17:45.583Z,17.28
2022-08-02T06:18:44.700Z,17.31
2022-08-02T06:19:51.392Z,17.31
2022-08-02T06:20:44.663Z,17.34
2022-08-02T06:22:33.375Z,17.39
2022-08-02T06:22:45.071Z,17.46
2022-08-02T06:23:57.660Z,17.41
2022-08-02T06:24:44.591Z,17.42
2022-08-02T06:25:49.862Z,17.53
2022-08-02T06:26:44.550Z,17.56
2022-08-02T06:27:44.532Z,17.56
2022-08-02T06:28:44.516Z,17.57
2022-08-02T06:29:44.497Z,17.65
2022-08-02T06:30:44.479Z,17.65
2022-08-02T06:31:45.243Z,17.68
2022-08-02T06:32:44.440Z,17.66
2022-08-02T06:33:44.424Z,17.69
2022-08-02T06:34:44.404Z,17.76
2022-08-02T06:35:44.385Z,17.75
2022-08-02T06:36:44.367Z,17.73
2022-08-02T06:37:44.349Z,17.84
2022-08-02T06:38:49.763Z,17.82
2022-08-02T06:39:44.310Z,17.91
2022-08-02T06:40:44.292Z,17.91
2022-08-02T06:41:44.272Z,17.95
2022-08-02T06:42:44.255Z,18.00
2022-08-02T06:43:44.237Z,18.06
2022-08-02T06:44:49.679Z,18.03
2022-08-02T06:45:44.199Z,18.00
2022-08-02T06:47:11.550Z,18.11
2022-08-02T06:47:44.162Z,18.11
2022-08-02T06:48:44.148Z,18.13
2022-08-02T06:49:52.879Z,18.21
2022-08-02T06:50:44.110Z,18.18
2022-08-02T06:51:44.090Z,18.19
2022-08-02T06:52:44.072Z,18.30
2022-08-02T06:53:44.055Z,18.34
2022-08-02T06:54:44.038Z,18.41
2022-08-02T06:55:44.413Z,18.36
2022-08-02T06:56:44.000Z,18.36
2022-08-02T06:57:43.983Z,18.49
2022-08-02T06:58:43.963Z,18.51
2022-08-02T06:59:43.945Z,18.55
2022-08-02T07:00:43.926Z,18.53
2022-08-02T07:01:43.983Z,18.64
2022-08-02T07:02:43.893Z,18.67
2022-08-02T07:03:43.870Z,18.70
2022-08-02T07:04:43.855Z,18.74
2022-08-02T07:05:43.836Z,18.82
2022-08-02T07:06:43.817Z,18.79
2022-08-02T07:07:43.796Z,18.88
2022-08-02T07:08:59.453Z,18.83
2022-08-02T07:09:56.921Z,18.86
2022-08-02T07:10:43.746Z,18.92
2022-08-02T07:11:43.729Z,18.86
2022-08-02T07:12:43.718Z,18.89
2022-08-02T07:13:43.691Z,18.98
2022-08-02T07:14:43.674Z,19.07
2022-08-02T07:15:49.216Z,19.01
2022-08-02T07:16:43.637Z,19.12
2022-08-02T07:17:43.618Z,19.15
2022-08-02T07:18:43.601Z,19.16
2022-08-02T07:19:43.584Z,19.26
2022-08-02T07:20:43.570Z,19.29
2022-08-02T07:21:57.786Z,19.30
2022-08-02T07:22:43.532Z,19.27
2022-08-02T07:23:43.509Z,19.27
2022-08-02T07:24:43.494Z,19.30
2022-08-02T07:26:02.947Z,19.39
2022-08-02T07:27:08.623Z,19.41
2022-08-02T07:27:43.438Z,19.48
2022-08-02T07:28:43.423Z,19.42
2022-08-02T07:29:45.466Z,19.53
2022-08-02T07:30:43.386Z,19.52
2022-08-02T07:31:43.367Z,19.59
2022-08-02T07:32:43.350Z,19.67
2022-08-02T07:33:46.779Z,19.71
2022-08-02T07:34:43.315Z,19.75
2022-08-02T07:35:43.296Z,19.74
2022-08-02T07:36:43.283Z,19.77
2022-08-02T07:37:55.468Z,19.81
2022-08-02T07:38:43.244Z,19.75
2022-08-02T07:39:44.448Z,19.70
2022-08-02T07:40:43.210Z,19.82
2022-08-02T07:41:43.192Z,19.85
2022-08-02T07:42:43.198Z,19.93
2022-08-02T07:43:43.164Z,19.93
2022-08-02T07:44:46.111Z,19.94
2022-08-02T07:45:55.618Z,19.97
2022-08-02T07:46:43.103Z,19.96
2022-08-02T07:47:43.086Z,20.02
2022-08-02T07:48:43.072Z,20.03
2022-08-02T07:49:43.050Z,20.11
2022-08-02T07:50:43.036Z,20.08
2022-08-02T07:51:43.014Z,20.19
2022-08-02T07:52:42.998Z,20.21
2022-08-02T07:53:51.355Z,20.22
2022-08-02T07:54:42.963Z,20.22
2022-08-02T07:55:42.944Z,20.33
2022-08-02T07:56:42.930Z,20.24
2022-08-02T07:57:46.427Z,20.32
2022-08-02T07:58:42.892Z,20.36
2022-08-02T07:59:42.875Z,20.33
2022-08-02T08:00:42.861Z,20.37
2022-08-02T08:01:43.691Z,20.46
2022-08-02T08:02:42.825Z,20.49
2022-08-02T08:03:42.808Z,20.55
2022-08-02T08:04:42.790Z,20.50
2022-08-02T08:05:42.772Z,20.40
2022-08-02T08:06:42.755Z,20.46
2022-08-02T08:07:42.737Z,20.55
2022-08-02T08:08:42.720Z,20.60
2022-08-02T08:09:42.703Z,20.63
2022-08-02T08:10:42.686Z,20.67
2022-08-02T08:11:42.669Z,20.80
2022-08-02T08:12:42.651Z,20.75
2022-08-02T08:13:42.634Z,20.80
2022-08-02T08:14:42.619Z,20.71
2022-08-02T08:15:42.600Z,20.78
2022-08-02T08:16:42.582Z,20.75
2022-08-02T08:17:42.564Z,20.83
2022-08-02T08:18:42.547Z,20.85
2022-08-02T08:19:51.690Z,20.93
2022-08-02T08:20:42.517Z,20.86
2022-08-02T08:21:42.495Z,20.86
2022-08-02T08:22:42.482Z,20.92
2022-08-02T08:23:42.463Z,20.86
2022-08-02T08:24:42.454Z,20.90
2022-08-02T08:25:42.453Z,20.90
2022-08-02T08:26:42.418Z,20.92
2022-08-02T08:27:42.394Z,20.98
2022-08-02T08:28:42.386Z,20.93
2022-08-02T08:29:42.460Z,21.04
2022-08-02T08:30:42.346Z,20.98
2022-08-02T08:31:42.330Z,21.19
2022-08-02T08:32:42.306Z,21.05
2022-08-02T08:33:42.289Z,21.14
2022-08-02T08:34:42.273Z,21.05
2022-08-02T08:35:42.256Z,21.10
2022-08-02T08:36:42.240Z,21.15
2022-08-02T08:37:42.223Z,21.17
2022-08-02T08:38:42.205Z,21.23
2022-08-02T08:39:53.674Z,21.35
2022-08-02T08:40:42.179Z,21.38
2022-08-02T08:41:42.155Z,21.35
2022-08-02T08:42:42.134Z,21.45
2022-08-02T08:43:42.121Z,21.54
2022-08-02T08:44:42.100Z,21.40
2022-08-02T08:45:42.085Z,21.54
2022-08-02T08:46:42.068Z,21.56
2022-08-02T08:47:42.053Z,21.59
2022-08-02T08:48:42.036Z,21.56
2022-08-02T08:49:52.570Z,21.65
2022-08-02T08:50:42.000Z,21.69
2022-08-02T08:51:41.983Z,21.80
2022-08-02T08:52:41.966Z,21.83
2022-08-02T08:53:41.955Z,21.83
2022-08-02T08:54:41.931Z,21.88
2022-08-02T08:55:41.916Z,21.94
2022-08-02T08:56:41.898Z,21.94
2022-08-02T08:57:41.890Z,21.78
2022-08-02T08:58:41.865Z,21.85
2022-08-02T08:59:41.849Z,21.85
2022-08-02T09:00:41.833Z,21.91
2022-08-02T09:01:50.459Z,22.01
2022-08-02T09:02:41.799Z,22.04
2022-08-02T09:03:41.782Z,22.06
2022-08-02T09:04:41.764Z,22.07
2022-08-02T09:05:41.759Z,21.99
2022-08-02T09:06:41.731Z,22.08
2022-08-02T09:07:41.716Z,22.03
2022-08-02T09:08:41.697Z,22.14
2022-08-02T09:09:41.683Z,22.26
2022-08-02T09:10:41.676Z,22.37
2022-08-02T09:11:41.649Z,22.43
2022-08-02T09:12:41.632Z,22.38
2022-08-02T09:13:46.081Z,22.36
2022-08-02T09:14:41.598Z,22.46
2022-08-02T09:15:41.583Z,22.36
2022-08-02T09:16:41.563Z,22.40
2022-08-02T09:17:41.555Z,22.38
2022-08-02T09:18:41.530Z,22.47
2022-08-02T09:19:45.990Z,22.49
2022-08-02T09:20:41.499Z,22.47
2022-08-02T09:21:41.482Z,22.41
2022-08-02T09:22:41.466Z,22.51
2022-08-02T09:23:41.451Z,22.68
2022-08-02T09:24:41.431Z,22.62
2022-08-02T09:25:41.417Z,22.76
2022-08-02T09:26:41.402Z,22.91
2022-08-02T09:27:41.383Z,22.83
2022-08-02T09:28:41.366Z,22.95
2022-08-02T09:30:06.104Z,22.95
2022-08-02T09:30:41.334Z,22.84
2022-08-02T09:31:49.350Z,22.93
2022-08-02T09:32:41.301Z,23.02
2022-08-02T09:33:41.288Z,22.91
2022-08-02T09:34:41.267Z,22.96
2022-08-02T09:36:07.115Z,22.91
2022-08-02T09:36:41.237Z,23.04
2022-08-02T09:37:42.062Z,23.06
2022-08-02T09:38:41.203Z,23.08
2022-08-02T09:39:41.189Z,23.08
2022-08-02T09:40:41.173Z,23.11
2022-08-02T09:41:41.155Z,23.16
2022-08-02T09:42:41.138Z,23.14
2022-08-02T09:44:03.324Z,23.14
2022-08-02T09:44:41.105Z,23.21
2022-08-02T09:45:41.094Z,23.23
2022-08-02T09:46:41.072Z,23.32
2022-08-02T09:47:41.058Z,23.42
2022-08-02T09:48:41.040Z,23.36
2022-08-02T09:49:41.104Z,23.54
2022-08-02T09:50:41.009Z,23.62
2022-08-02T09:51:40.992Z,23.84
2022-08-02T09:52:43.641Z,23.89
2022-08-02T09:53:40.963Z,24.09
2022-08-02T09:54:40.948Z,24.14
2022-08-02T09:55:40.933Z,24.40
2022-08-02T09:56:40.912Z,24.69
2022-08-02T09:57:40.897Z,24.66
2022-08-02T09:58:40.880Z,25.00
2022-08-02T09:59:40.870Z,25.01
2022-08-02T10:00:52.579Z,25.15
2022-08-02T10:01:46.367Z,25.37
2022-08-02T10:02:40.919Z,25.37
2022-08-02T10:03:40.801Z,25.51
2022-08-02T10:04:52.953Z,25.61
2022-08-02T10:05:40.772Z,25.85
2022-08-02T10:06:40.756Z,25.71
2022-08-02T10:07:40.739Z,25.91
2022-08-02T10:08:40.724Z,25.99
2022-08-02T10:09:46.433Z,26.26
2022-08-02T10:10:40.690Z,26.30
2022-08-02T10:11:40.679Z,26.44
2022-08-02T10:12:40.661Z,26.48
2022-08-02T10:13:40.646Z,26.46
2022-08-02T10:14:40.654Z,26.60
2022-08-02T10:15:50.209Z,26.78
2022-08-02T10:16:40.599Z,26.85
2022-08-02T10:17:40.588Z,27.03
2022-08-02T10:18:41.516Z,27.05
2022-08-02T10:20:02.037Z,27.08
2022-08-02T10:20:40.541Z,27.35
2022-08-02T10:21:44.931Z,27.38
2022-08-02T10:22:40.507Z,27.57
2022-08-02T10:23:40.508Z,27.61
2022-08-02T10:24:47.420Z,27.58
2022-08-02T10:25:40.466Z,27.64
2022-08-02T10:26:40.448Z,27.67
2022-08-02T10:28:02.455Z,27.67
2022-08-02T10:28:40.418Z,27.66
2022-08-02T10:29:52.823Z,27.60
2022-08-02T10:30:40.389Z,27.58
2022-08-02T10:31:40.380Z,27.71
2022-08-02T10:32:40.373Z,27.67
2022-08-02T10:33:40.351Z,27.66
2022-08-02T10:34:40.332Z,27.76
2022-08-02T10:35:40.317Z,27.79
2022-08-02T10:36:40.303Z,27.82
2022-08-02T10:37:40.289Z,28.08
2022-08-02T10:38:40.274Z,28.19
2022-08-02T10:39:40.259Z,28.18
2022-08-02T10:40:40.245Z,28.25
2022-08-02T10:41:40.231Z,28.25
2022-08-02T10:42:40.215Z,28.10
2022-08-02T10:43:40.204Z,28.06
2022-08-02T10:44:40.189Z,27.97
2022-08-02T10:45:40.180Z,27.90
2022-08-02T10:46:40.156Z,27.85
2022-08-02T10:47:40.148Z,27.81
2022-08-02T10:48:40.134Z,27.82
2022-08-02T10:49:40.668Z,27.93
2022-08-02T10:50:40.101Z,27.93
2022-08-02T10:51:40.087Z,28.06
2022-08-02T10:52:40.087Z,28.04
2022-08-02T10:53:40.060Z,28.18
2022-08-02T10:54:40.052Z,28.25
2022-08-02T10:55:40.031Z,28.18
2022-08-02T10:56:40.018Z,27.85
2022-08-02T10:57:40.004Z,27.85
2022-08-02T10:58:39.990Z,27.72
2022-08-02T10:59:39.983Z,27.82
2022-08-02T11:00:40.011Z,27.93
2022-08-02T11:01:40.331Z,28.09
2022-08-02T11:02:39.939Z,28.33
2022-08-02T11:03:40.566Z,28.46
2022-08-02T11:04:39.904Z,28.47
2022-08-02T11:05:43.462Z,28.46
2022-08-02T11:06:39.877Z,28.46
2022-08-02T11:07:39.865Z,28.46
2022-08-02T11:08:39.848Z,28.46
2022-08-02T11:09:39.837Z,28.47
2022-08-02T11:10:39.821Z,28.35
2022-08-02T11:11:53.586Z,28.35
2022-08-02T11:12:39.795Z,28.35
2022-08-02T11:13:39.784Z,28.28
2022-08-02T11:14:39.773Z,28.25
2022-08-02T11:15:39.753Z,28.19
2022-08-02T11:16:39.738Z,28.12
2022-08-02T11:17:41.082Z,28.13
2022-08-02T11:18:39.711Z,28.09
2022-08-02T11:19:39.699Z,28.09
2022-08-02T11:20:39.684Z,27.91
2022-08-02T11:21:39.674Z,28.04
2022-08-02T11:22:39.657Z,28.06
2022-08-02T11:23:45.297Z,28.03
2022-08-02T11:24:39.632Z,28.00
2022-08-02T11:26:02.714Z,27.85
2022-08-02T11:26:39.603Z,27.90
2022-08-02T11:27:39.590Z,27.81
2022-08-02T11:28:39.579Z,27.64
2022-08-02T11:29:39.564Z,27.64
2022-08-02T11:30:39.749Z,27.64
2022-08-02T11:31:39.534Z,27.61
2022-08-02T11:32:39.522Z,27.57
2022-08-02T11:33:39.512Z,27.66
2022-08-02T11:34:39.494Z,27.63
2022-08-02T11:35:39.480Z,27.71
2022-08-02T11:36:39.467Z,27.50
2022-08-02T11:37:39.458Z,27.40
2022-08-02T11:38:39.438Z,27.20
2022-08-02T11:39:39.427Z,26.98
2022-08-02T11:40:39.411Z,26.93
2022-08-02T11:41:45.938Z,26.76
2022-08-02T11:42:39.385Z,26.73
2022-08-02T11:43:39.369Z,26.63
2022-08-02T11:44:39.358Z,26.59
2022-08-02T11:45:39.345Z,26.49
2022-08-02T11:46:39.330Z,26.53
2022-08-02T11:47:39.318Z,26.48
2022-08-02T11:48:39.304Z,26.44
2022-08-02T11:49:39.398Z,26.39
2022-08-02T11:50:39.272Z,26.36
2022-08-02T11:51:39.263Z,26.42
2022-08-02T11:52:39.246Z,26.39
2022-08-02T11:53:39.234Z,26.52
2022-08-02T11:54:39.218Z,26.42
2022-08-02T11:55:39.209Z,26.42
2022-08-02T11:56:39.190Z,26.51
2022-08-02T11:58:03.839Z,26.55
2022-08-02T11:58:39.161Z,26.59
2022-08-02T11:59:39.159Z,26.67
2022-08-02T12:00:39.135Z,26.73
2022-08-02T12:01:46.180Z,26.60
2022-08-02T12:02:39.110Z,26.63
2022-08-02T12:03:39.314Z,26.70
2022-08-02T12:04:39.081Z,26.66
2022-08-02T12:06:05.183Z,26.68
2022-08-02T12:06:39.053Z,26.76
2022-08-02T12:07:45.625Z,26.74
2022-08-02T12:08:39.024Z,26.73
2022-08-02T12:09:41.249Z,26.71
2022-08-02T12:10:39.001Z,26.67
2022-08-02T12:11:39.366Z,26.64
2022-08-02T12:12:38.971Z,26.63
2022-08-02T12:13:38.959Z,26.61
2022-08-02T12:14:38.940Z,26.53
2022-08-02T12:15:38.929Z,26.48
2022-08-02T12:16:38.915Z,26.37
2022-08-02T12:17:38.902Z,26.41
2022-08-02T12:18:38.892Z,26.44
2022-08-02T12:19:38.874Z,26.39
2022-08-02T12:20:38.856Z,26.49
2022-08-02T12:21:38.846Z,26.42
2022-08-02T12:22:41.842Z,26.41
2022-08-02T12:23:38.819Z,26.41
2022-08-02T12:24:38.810Z,26.42
2022-08-02T12:25:38.790Z,26.51
2022-08-02T12:26:38.775Z,26.52
2022-08-02T12:27:38.762Z,26.52
2022-08-02T12:28:38.776Z,26.66
2022-08-02T12:29:58.395Z,26.61
2022-08-02T12:30:38.718Z,26.67
2022-08-02T12:31:38.704Z,26.71
2022-08-02T12:32:38.693Z,26.61
2022-08-02T12:33:39.520Z,26.74
2022-08-02T12:34:38.663Z,26.73
2022-08-02T12:35:38.650Z,26.76
2022-08-02T12:36:38.638Z,26.74
2022-08-02T12:37:38.623Z,26.81
2022-08-02T12:38:38.610Z,26.78
2022-08-02T12:39:38.597Z,26.63
2022-08-02T12:40:38.581Z,26.76
2022-08-02T12:41:38.567Z,26.68
2022-08-02T12:42:38.554Z,26.78
2022-08-02T12:43:38.538Z,26.79
2022-08-02T12:44:38.530Z,26.81
2022-08-02T12:45:41.347Z,26.79
2022-08-02T12:46:42.074Z,26.79
2022-08-02T12:47:38.513Z,26.85
2022-08-02T12:48:42.787Z,26.85
2022-08-02T12:49:38.485Z,26.92
2022-08-02T12:50:38.444Z,26.85
2022-08-02T12:51:59.069Z,26.97
2022-08-02T12:52:38.413Z,26.88